地図

経路データ

SID SEASON NUMBER BASIN SUBBASIN NAME ISO_TIME NATURE LAT LON WMO_WIND WMO_PRES WMO_AGENCY TRACK_TYPE DIST2LAND LANDFALL IFLAG USA_AGENCY USA_ATCF_ID USA_LAT USA_LON USA_RECORD USA_STATUS USA_WIND USA_PRES USA_SSHS USA_R34_NE USA_R34_SE USA_R34_SW USA_R34_NW USA_R50_NE USA_R50_SE USA_R50_SW USA_R50_NW USA_R64_NE USA_R64_SE USA_R64_SW USA_R64_NW USA_POCI USA_ROCI USA_RMW USA_EYE TOKYO_LAT TOKYO_LON TOKYO_GRADE TOKYO_WIND TOKYO_PRES TOKYO_R50_DIR TOKYO_R50_LONG TOKYO_R50_SHORT TOKYO_R30_DIR TOKYO_R30_LONG TOKYO_R30_SHORT TOKYO_LAND CMA_LAT CMA_LON CMA_CAT CMA_WIND CMA_PRES HKO_LAT HKO_LON HKO_CAT HKO_WIND HKO_PRES NEWDELHI_LAT NEWDELHI_LON NEWDELHI_GRADE NEWDELHI_WIND NEWDELHI_PRES NEWDELHI_CI NEWDELHI_DP NEWDELHI_POCI REUNION_LAT REUNION_LON REUNION_TYPE REUNION_WIND REUNION_PRES REUNION_TNUM REUNION_CI REUNION_RMW REUNION_R34_NE REUNION_R34_SE REUNION_R34_SW REUNION_R34_NW REUNION_R50_NE REUNION_R50_SE REUNION_R50_SW REUNION_R50_NW REUNION_R64_NE REUNION_R64_SE REUNION_R64_SW REUNION_R64_NW BOM_LAT BOM_LON BOM_TYPE BOM_WIND BOM_PRES BOM_TNUM BOM_CI BOM_RMW BOM_R34_NE BOM_R34_SE BOM_R34_SW BOM_R34_NW BOM_R50_NE BOM_R50_SE BOM_R50_SW BOM_R50_NW BOM_R64_NE BOM_R64_SE BOM_R64_SW BOM_R64_NW BOM_ROCI BOM_POCI BOM_EYE BOM_POS_METHOD BOM_PRES_METHOD NADI_LAT NADI_LON NADI_CAT NADI_WIND NADI_PRES WELLINGTON_LAT WELLINGTON_LON WELLINGTON_WIND WELLINGTON_PRES DS824_LAT DS824_LON DS824_STAGE DS824_WIND DS824_PRES TD9636_LAT TD9636_LON TD9636_STAGE TD9636_WIND TD9636_PRES TD9635_LAT TD9635_LON TD9635_WIND TD9635_PRES TD9635_ROCI NEUMANN_LAT NEUMANN_LON NEUMANN_CLASS NEUMANN_WIND NEUMANN_PRES MLC_LAT MLC_LON MLC_CLASS MLC_WIND MLC_PRES USA_GUST BOM_GUST BOM_GUST_PER REUNION_GUST REUNION_GUST_PER USA_SEAHGT USA_SEARAD_NE USA_SEARAD_SE USA_SEARAD_SW USA_SEARAD_NW STORM_SPEED STORM_DIR
1971171N20089 1971 58 NI BB NOT_NAMED 1971-06-20 03:00:00 NR 19.5000 89.0000 main 234 202 __________O___ -1 19.5000 89.0000 1 9 311
1971171N20089 1971 58 NI BB NOT_NAMED 1971-06-20 06:00:00 TS 19.8011 88.6343 main 194 160 O________OP___ jtwc_io IO041971 19.8000 88.6000 -1 19.8000 88.6000 TC 25 19.8023 88.6686 1 9 315
1971171N20089 1971 58 NI BB NOT_NAMED 1971-06-20 09:00:00 TS 20.1129 88.3455 main 151 119 P________PP___ IO041971 20.1351 88.3353 -1 20.1351 88.3353 TC 25 20.0833 88.3591 1 8 318
1971171N20089 1971 58 NI BB NOT_NAMED 1971-06-20 12:00:00 TS 20.3691 88.0980 main 119 96 O________OP___ jtwc_io IO041971 20.4000 88.1000 -1 20.4000 88.1000 TC 25 20.3227 88.0950 1 6 316
1971171N20089 1971 58 NI BB NOT_NAMED 1971-06-20 15:00:00 TS 20.5300 87.9132 main 96 83 P________PO___ IO041971 20.5450 87.9199 -1 20.5450 87.9199 TC 25 20.5000 87.9000 1 4 309
1971171N20089 1971 58 NI BB NOT_NAMED 1971-06-20 18:00:00 TS 20.6010 87.7957 main 83 73 O________OP___ jtwc_io IO041971 20.6000 87.8000 -1 20.6000 87.8000 TC 25 20.6031 87.7872 1 2 299
1971171N20089 1971 58 NI BB NOT_NAMED 1971-06-20 21:00:00 TS 20.6173 87.7422 main 73 73 P________PP___ IO041971 20.6000 87.7499 -1 20.6000 87.7499 TC 25 20.6520 87.7268 1 1 284
1971171N20089 1971 58 NI BB NOT_NAMED 1971-06-21 00:00:00 TS 20.6250 87.6927 main 73 62 O________OP___ jtwc_io IO041971 20.6000 87.7000 -1 20.6000 87.7000 TC 25 20.6750 87.6780 1 2 297
1971171N20089 1971 58 NI BB NOT_NAMED 1971-06-21 03:00:00 TS 20.6950 87.5767 main 62 41 P________PO___ IO041971 20.6925 87.5651 -1 20.6925 87.5651 TC 25 20.7000 87.6000 1 3 302
1971171N20089 1971 58 NI BB NOT_NAMED 1971-06-21 06:00:00 TS 20.7879 87.4201 main 41 31 O________OP___ jtwc_io IO041971 20.8000 87.4000 -1 20.8000 87.4000 TC 25 20.7636 87.4602 1 3 298
1971171N20089 1971 58 NI BB NOT_NAMED 1971-06-21 09:00:00 TS 20.8448 87.2757 main 31 15 P________PP___ IO041971 20.8499 87.2724 -1 20.8499 87.2724 TC 25 20.8347 87.2823 1 3 290
1971171N20089 1971 58 NI BB NOT_NAMED 1971-06-21 12:00:00 TS 20.9045 87.0878 main 15 0 O________OP___ jtwc_io IO041971 20.9000 87.1000 -1 20.9000 87.1000 TC 25 20.9135 87.0633 1 5 289
1971171N20089 1971 58 NI BB NOT_NAMED 1971-06-21 15:00:00 TS 20.9950 86.8200 main 0 0 P________PO___ IO041971 20.9925 86.8300 -1 20.9925 86.8300 TC 25 21.0000 86.8000 1 6 289
1971171N20089 1971 58 NI BB NOT_NAMED 1971-06-21 18:00:00 TS 21.0991 86.4910 main 0 0 O________OP___ jtwc_io IO041971 21.1000 86.5000 -1 21.1000 86.5000 TC 25 21.0973 86.4730 1 7 288
1971171N20089 1971 58 NI BB NOT_NAMED 1971-06-21 21:00:00 TS 21.2002 86.1359 main 0 0 P________PP___ IO041971 21.2000 86.1500 -1 21.2000 86.1500 TC 25 21.2006 86.1078 1 7 287
1971171N20089 1971 58 NI BB NOT_NAMED 1971-06-22 00:00:00 TS 21.3012 85.7795 main 0 0 O________OP___ jtwc_io IO041971 21.3000 85.8000 -1 21.3000 85.8000 TC 25 21.3035 85.7386 1 7 288
1971171N20089 1971 58 NI BB NOT_NAMED 1971-06-22 03:00:00 TS 21.4050 85.4517 main 0 0 P________PO___ IO041971 21.4075 85.4775 -1 21.4075 85.4775 TC 25 21.4000 85.4000 1 6 290
1971171N20089 1971 58 NI BB NOT_NAMED 1971-06-22 06:00:00 TS 21.4893 85.2118 main 0 0 O________OP___ jtwc_io IO041971 21.5000 85.2000 -1 21.5000 85.2000 TC 25 21.4680 85.2355 1 4 290
1971171N20089 1971 58 NI BB NOT_NAMED 1971-06-22 09:00:00 TS 21.5437 85.0452 main 0 0 P________PP___ IO041971 21.5497 85.0223 -1 21.5497 85.0223 TC 25 21.5317 85.0908 1 4 287
1971171N20089 1971 58 NI BB NOT_NAMED 1971-06-22 12:00:00 TS 21.6016 84.8253 main 0 0 O________OP___ jtwc_io IO041971 21.6000 84.8000 -1 21.6000 84.8000 TC 25 21.6047 84.8758 1 6 285
1971171N20089 1971 58 NI BB NOT_NAMED 1971-06-22 15:00:00 TS 21.6895 84.4748 main 0 0 P________PO___ IO041971 21.6843 84.4622 -1 21.6843 84.4622 TC 25 21.7000 84.5000 1 9 283
1971171N20089 1971 58 NI BB NOT_NAMED 1971-06-22 18:00:00 TS 21.8038 83.8650 main 0 0 O________OP___ jtwc_io IO041971 21.8000 83.9000 -1 21.8000 83.9000 TC 25 21.8115 83.7950 1 14 280
1971171N20089 1971 58 NI BB NOT_NAMED 1971-06-22 21:00:00 TS 21.9391 82.9693 main 0 0 P________PP___ IO041971 21.9361 82.9876 -1 21.9361 82.9876 TC 25 21.9450 82.9328 1 17 280
1971171N20089 1971 58 NI BB NOT_NAMED 1971-06-23 00:00:00 TS 22.1018 82.0097 main 0 0 O________OP___ jtwc_io IO041971 22.1000 82.0000 -1 22.1000 82.0000 TC 25 22.1053 82.0291 1 17 282
1971171N20089 1971 58 NI BB NOT_NAMED 1971-06-23 03:00:00 TS 22.2847 81.2215 main 0 0 P________PO___ IO041971 22.2770 81.2323 -1 22.2770 81.2323 TC 25 22.3000 81.2000 1 14 287
1971171N20089 1971 58 NI BB NOT_NAMED 1971-06-23 06:00:00 TS 22.5141 80.5737 main 0 0 O________OP___ jtwc_io IO041971 22.5000 80.6000 -1 22.5000 80.6000 TC 25 22.5352 80.5343 1 12 295
1971171N20089 1971 58 NI BB NOT_NAMED 1971-06-23 09:00:00 TS 22.7920 80.0464 main 0 0 P________PP___ IO041971 22.7828 80.0730 -1 22.7828 80.0730 TC 25 22.8043 80.0110 1 11 303
1971171N20089 1971 58 NI BB NOT_NAMED 1971-06-23 12:00:00 TS 23.0982 79.5912 main 0 0 O________OP___ jtwc_io IO041971 23.1000 79.6000 -1 23.1000 79.6000 TC 25 23.0965 79.5823 1 10 308
1971171N20089 1971 58 NI BB NOT_NAMED 1971-06-23 15:00:00 NR 23.4000 79.2000 main 0 __________O___ IO041971 -1 TC 23.4000 79.2000 1 9 310

IBTrACS Databaseについて

本データベースは、米国NOAAが公開する1842年以降の世界の熱帯低気圧のベストトラックデータアーカイブInternational Best Track Archive for Climate Stewardship (IBTrACS)を、ウェブで閲覧しやすい形式に変換したものです。

最終更新日:2021-11-26